createdAt,value
2018-05-18T00:01:53.894Z,11.61
2018-05-18T00:04:28.524Z,11.61
2018-05-18T00:06:57.825Z,11.65
2018-05-18T00:09:32.844Z,11.72
2018-05-18T00:12:01.264Z,11.70
2018-05-18T00:14:37.283Z,11.58
2018-05-18T00:17:07.655Z,11.48
2018-05-18T00:19:41.021Z,11.44
2018-05-18T00:22:15.795Z,11.40
2018-05-18T00:24:45.175Z,11.40
2018-05-18T00:27:16.244Z,11.43
2018-05-18T00:29:54.389Z,11.48
2018-05-18T00:32:22.661Z,11.48
2018-05-18T00:34:51.962Z,11.47
2018-05-18T00:37:22.210Z,11.46
2018-05-18T00:39:56.457Z,11.46
2018-05-18T00:42:30.771Z,11.42
2018-05-18T00:45:06.335Z,11.38
2018-05-18T00:47:43.143Z,11.34
2018-05-18T00:50:25.640Z,11.35
2018-05-18T00:52:58.059Z,11.33
2018-05-18T00:55:43.622Z,11.27
2018-05-18T00:58:19.473Z,11.20
2018-05-18T01:00:51.649Z,11.19
2018-05-18T01:03:43.536Z,11.24
2018-05-18T01:06:17.280Z,11.21
2018-05-18T01:08:59.312Z,11.15
2018-05-18T01:11:34.465Z,11.12
2018-05-18T01:14:08.641Z,11.06
2018-05-18T01:16:39.653Z,11.08
2018-05-18T01:19:15.654Z,11.07
2018-05-18T01:21:55.629Z,11.14
2018-05-18T01:24:42.100Z,11.19
2018-05-18T01:27:18.195Z,11.22
2018-05-18T01:29:46.570Z,11.22
2018-05-18T01:32:16.845Z,11.24
2018-05-18T01:34:45.103Z,11.23
2018-05-18T01:37:18.341Z,11.23
2018-05-18T01:39:53.632Z,11.24
2018-05-18T01:42:25.871Z,11.24
2018-05-18T01:44:58.995Z,11.23
2018-05-18T01:47:34.557Z,11.26
2018-05-18T01:50:05.339Z,11.25
2018-05-18T01:52:48.974Z,11.25
2018-05-18T01:55:17.359Z,11.28
2018-05-18T01:57:51.032Z,11.29
2018-05-18T02:00:20.090Z,11.32
2018-05-18T02:02:52.133Z,11.32
2018-05-18T02:05:24.030Z,11.31
2018-05-18T02:07:56.007Z,11.31
2018-05-18T02:10:27.054Z,11.30
2018-05-18T02:12:57.070Z,11.26
2018-05-18T02:15:27.159Z,11.24
2018-05-18T02:18:00.058Z,11.22
2018-05-18T02:20:30.135Z,11.19
2018-05-18T02:23:02.520Z,11.16
2018-05-18T02:25:37.752Z,11.11
2018-05-18T02:28:06.101Z,11.09
2018-05-18T02:30:45.157Z,11.08
2018-05-18T02:33:14.415Z,11.10
2018-05-18T02:35:44.500Z,11.05
2018-05-18T02:38:16.797Z,10.86
2018-05-18T02:40:45.059Z,10.73
2018-05-18T02:43:13.510Z,10.73
2018-05-18T02:45:43.783Z,10.74
2018-05-18T02:48:12.843Z,10.80
2018-05-18T02:51:00.683Z,10.86
2018-05-18T02:53:32.333Z,10.93
2018-05-18T02:56:06.104Z,10.99
2018-05-18T02:58:40.619Z,11.04
2018-05-18T03:01:13.779Z,11.08
2018-05-18T03:03:42.041Z,11.07
2018-05-18T03:06:10.411Z,11.07
2018-05-18T03:08:38.723Z,11.10
2018-05-18T03:11:07.852Z,11.13
2018-05-18T03:13:36.883Z,11.15
2018-05-18T03:16:08.975Z,11.17
2018-05-18T03:18:38.067Z,11.18
2018-05-18T03:21:07.166Z,11.20
2018-05-18T03:23:40.778Z,11.24
2018-05-18T03:26:09.023Z,11.30
2018-05-18T03:28:37.295Z,11.35
2018-05-18T03:31:06.734Z,11.32
2018-05-18T03:33:36.075Z,11.32
2018-05-18T03:36:21.970Z,11.31
2018-05-18T03:38:55.182Z,11.36
2018-05-18T03:41:29.212Z,11.40
2018-05-18T03:44:10.738Z,11.43
2018-05-18T03:46:39.091Z,11.48
2018-05-18T03:49:10.118Z,11.49
2018-05-18T03:51:43.626Z,11.49
2018-05-18T03:54:18.810Z,11.52
2018-05-18T03:56:51.019Z,11.59
2018-05-18T03:59:28.465Z,11.59
2018-05-18T04:02:16.745Z,11.64
2018-05-18T04:05:04.584Z,11.71
2018-05-18T04:07:55.500Z,11.75
2018-05-18T04:10:25.865Z,11.81
2018-05-18T04:12:59.595Z,11.88
2018-05-18T04:15:27.987Z,11.94
2018-05-18T04:17:59.546Z,11.95
2018-05-18T04:20:29.484Z,12.04
2018-05-18T04:22:58.755Z,12.05
2018-05-18T04:25:28.052Z,12.08
2018-05-18T04:27:56.391Z,12.13
2018-05-18T04:30:24.810Z,12.20
2018-05-18T04:32:57.729Z,12.23
2018-05-18T04:35:27.872Z,12.17
2018-05-18T04:38:02.897Z,12.26
2018-05-18T04:40:32.240Z,12.40
2018-05-18T04:43:01.606Z,12.52
2018-05-18T04:45:32.933Z,12.67
2018-05-18T04:48:03.260Z,12.74
2018-05-18T04:50:40.413Z,12.85
2018-05-18T04:53:15.219Z,12.86
2018-05-18T04:55:50.501Z,12.87
2018-05-18T04:58:19.547Z,12.79
2018-05-18T05:00:58.499Z,12.92
2018-05-18T05:03:45.766Z,13.07
2018-05-18T05:06:16.823Z,13.04
2018-05-18T05:08:49.235Z,13.05
2018-05-18T05:11:17.559Z,13.21
2018-05-18T05:13:47.536Z,13.36
2018-05-18T05:16:15.814Z,13.35
2018-05-18T05:18:44.119Z,13.62
2018-05-18T05:21:20.431Z,13.80
2018-05-18T05:23:54.646Z,14.02
2018-05-18T05:26:27.736Z,14.18
2018-05-18T05:28:57.202Z,14.33
2018-05-18T05:31:25.491Z,14.34
2018-05-18T05:33:57.470Z,14.13
2018-05-18T05:36:26.904Z,14.06
2018-05-18T05:39:08.850Z,14.05
2018-05-18T05:41:43.814Z,14.28
2018-05-18T05:44:12.227Z,14.38
2018-05-18T05:46:57.328Z,14.58
2018-05-18T05:49:25.688Z,14.26
2018-05-18T05:51:55.794Z,14.31
2018-05-18T05:54:24.470Z,14.28
2018-05-18T05:56:54.366Z,14.51
2018-05-18T05:59:23.418Z,15.01
2018-05-18T06:01:52.700Z,15.39
2018-05-18T06:04:22.531Z,15.59
2018-05-18T06:06:52.797Z,15.55
2018-05-18T06:09:28.779Z,15.98
2018-05-18T06:12:01.649Z,15.83
2018-05-18T06:14:47.001Z,15.25
2018-05-18T06:17:28.784Z,15.57
2018-05-18T06:19:57.405Z,14.88
2018-05-18T06:22:25.688Z,15.06
2018-05-18T06:25:06.660Z,14.77
2018-05-18T06:27:44.260Z,15.13
2018-05-18T06:30:12.565Z,15.67
2018-05-18T06:32:48.758Z,16.18
2018-05-18T06:35:18.103Z,16.18
2018-05-18T06:37:51.978Z,15.82
2018-05-18T06:40:25.127Z,16.38
2018-05-18T06:43:03.485Z,16.79
2018-05-18T06:45:47.111Z,16.52
2018-05-18T06:48:18.661Z,17.08
2018-05-18T06:50:47.960Z,17.37
2018-05-18T06:53:17.638Z,17.59
2018-05-18T06:56:16.219Z,17.84
2018-05-18T06:58:44.630Z,18.03
2018-05-18T07:01:19.911Z,18.09
2018-05-18T07:03:48.320Z,18.11
2018-05-18T07:06:30.103Z,18.40
2018-05-18T07:09:10.599Z,18.78
2018-05-18T07:11:52.334Z,18.75
2018-05-18T07:14:36.384Z,18.05
2018-05-18T07:17:11.226Z,17.84
2018-05-18T07:19:41.358Z,17.08
2018-05-18T07:22:22.768Z,16.99
2018-05-18T07:24:57.154Z,16.66
2018-05-18T07:27:27.637Z,16.12
2018-05-18T07:30:13.000Z,16.53
2018-05-18T07:32:41.345Z,16.91
2018-05-18T07:35:11.494Z,16.40
2018-05-18T07:37:43.022Z,16.28
2018-05-18T07:40:31.046Z,15.88
2018-05-18T07:43:08.199Z,16.02
2018-05-18T07:45:55.549Z,15.92
2018-05-18T07:48:24.931Z,16.38
2018-05-18T07:50:53.316Z,16.49
2018-05-18T07:56:09.423Z,16.06
2018-05-18T07:58:38.909Z,16.10
2018-05-18T08:01:10.942Z,16.47
2018-05-18T08:03:46.315Z,17.21
2018-05-18T08:06:16.761Z,16.53
2018-05-18T08:08:46.078Z,16.24
2018-05-18T08:11:18.958Z,16.38
2018-05-18T08:13:50.705Z,16.36
2018-05-18T08:16:21.088Z,16.22
2018-05-18T08:18:55.383Z,16.15
2018-05-18T08:21:28.294Z,16.76
2018-05-18T08:23:59.782Z,17.01
2018-05-18T08:26:31.697Z,17.24
2018-05-18T08:29:18.648Z,17.15
2018-05-18T08:31:56.905Z,17.25
2018-05-18T08:34:32.003Z,17.88
2018-05-18T08:37:00.399Z,18.33
2018-05-18T08:39:29.782Z,18.84
2018-05-18T08:42:00.078Z,18.00
2018-05-18T08:44:35.748Z,18.58
2018-05-18T08:47:05.977Z,18.95
2018-05-18T08:49:34.259Z,19.65
2018-05-18T08:52:03.585Z,20.05
2018-05-18T08:54:37.306Z,19.72
2018-05-18T08:57:18.851Z,20.89
2018-05-18T08:59:52.089Z,21.36
2018-05-18T09:02:35.051Z,21.19
2018-05-18T09:05:07.323Z,20.55
2018-05-18T09:07:42.699Z,21.94
2018-05-18T09:10:12.833Z,24.26
2018-05-18T09:12:43.868Z,26.58
2018-05-18T09:15:17.472Z,26.48
2018-05-18T09:17:50.466Z,26.83
2018-05-18T09:20:21.525Z,27.10
2018-05-18T09:22:49.852Z,25.31
2018-05-18T09:25:21.822Z,26.12
2018-05-18T09:27:50.327Z,26.58
2018-05-18T09:30:19.746Z,27.62
2018-05-18T09:32:49.029Z,25.36
2018-05-18T09:35:17.271Z,26.56
2018-05-18T09:37:45.558Z,26.49
2018-05-18T09:40:14.068Z,26.00
2018-05-18T09:42:43.333Z,23.29
2018-05-18T09:45:12.710Z,23.04
2018-05-18T09:47:44.649Z,22.25
2018-05-18T09:50:18.786Z,21.74
2018-05-18T09:52:47.238Z,21.40
2018-05-18T09:55:23.841Z,23.06
2018-05-18T09:58:07.011Z,25.87
2018-05-18T10:00:36.207Z,28.41
2018-05-18T10:03:05.379Z,29.03
2018-05-18T10:05:34.503Z,29.06
2018-05-18T10:08:05.515Z,27.27
2018-05-18T10:10:33.802Z,26.21
2018-05-18T10:13:02.194Z,25.75
2018-05-18T10:15:33.367Z,27.28
2018-05-18T10:18:05.030Z,26.49
2018-05-18T10:20:33.485Z,24.04
2018-05-18T10:23:02.784Z,23.66
2018-05-18T10:25:33.843Z,23.90
2018-05-18T10:28:27.919Z,27.09
2018-05-18T10:31:00.852Z,28.78
2018-05-18T10:33:34.821Z,26.84
2018-05-18T10:36:07.812Z,27.66
2018-05-18T10:38:37.571Z,28.37
2018-05-18T10:41:09.107Z,29.80
2018-05-18T10:43:37.385Z,29.96
2018-05-18T10:46:12.435Z,31.34
2018-05-18T10:48:41.715Z,33.17
2018-05-18T10:51:15.415Z,32.22
2018-05-18T10:53:48.298Z,31.16
2018-05-18T10:56:21.784Z,31.73
2018-05-18T10:59:06.996Z,31.10
2018-05-18T11:01:35.305Z,29.88
2018-05-18T11:04:04.677Z,29.08
2018-05-18T11:06:33.065Z,29.57
2018-05-18T11:09:06.626Z,30.47
2018-05-18T11:11:35.844Z,32.19
2018-05-18T11:14:12.084Z,32.76
2018-05-18T11:16:42.368Z,33.50
2018-05-18T11:19:12.510Z,30.54
2018-05-18T11:21:47.141Z,30.74
2018-05-18T11:24:16.156Z,32.16
2018-05-18T11:26:47.926Z,31.08
2018-05-18T11:29:22.041Z,26.88
2018-05-18T11:31:52.663Z,27.92
2018-05-18T11:34:21.007Z,28.03
2018-05-18T11:36:49.451Z,29.37
2018-05-18T11:39:19.774Z,29.77
2018-05-18T11:42:04.764Z,28.63
2018-05-18T11:44:34.041Z,28.04
2018-05-18T11:47:06.992Z,29.89
2018-05-18T11:49:41.212Z,30.94
2018-05-18T11:52:18.032Z,31.18
2018-05-18T11:54:50.618Z,32.58
2018-05-18T11:57:19.690Z,31.82
2018-05-18T11:59:49.136Z,28.62
2018-05-18T12:02:19.571Z,29.33
2018-05-18T12:04:49.671Z,33.58
2018-05-18T12:07:19.962Z,35.08
2018-05-18T12:09:50.182Z,33.34
2018-05-18T12:12:24.799Z,31.45
2018-05-18T12:15:01.073Z,33.09
2018-05-18T12:17:33.036Z,35.20
2018-05-18T12:20:02.288Z,36.34
2018-05-18T12:22:38.238Z,34.13
2018-05-18T12:25:08.714Z,30.58
2018-05-18T12:27:50.316Z,30.22
2018-05-18T12:30:19.449Z,28.77
2018-05-18T12:32:48.771Z,30.24
2018-05-18T12:35:24.171Z,31.25
2018-05-18T12:37:53.679Z,30.04
2018-05-18T12:40:22.756Z,31.49
2018-05-18T12:42:51.005Z,29.58
2018-05-18T12:45:26.875Z,29.61
2018-05-18T12:47:56.180Z,29.17
2018-05-18T12:50:27.777Z,30.25
2018-05-18T12:53:00.611Z,31.97
2018-05-18T12:55:35.072Z,35.54
2018-05-18T12:58:08.223Z,36.47
2018-05-18T13:00:55.702Z,36.79
2018-05-18T13:03:36.017Z,35.66
2018-05-18T13:06:08.206Z,32.10
2018-05-18T13:08:38.429Z,32.53
2018-05-18T13:11:09.464Z,34.02
2018-05-18T13:13:39.588Z,32.19
2018-05-18T13:16:10.628Z,33.98
2018-05-18T13:18:40.746Z,33.84
2018-05-18T13:21:16.246Z,35.43
2018-05-18T13:23:45.599Z,38.60
2018-05-18T13:26:26.533Z,39.33
2018-05-18T13:29:05.500Z,35.53
2018-05-18T13:31:33.953Z,34.57
2018-05-18T13:34:04.287Z,36.46
2018-05-18T13:36:32.550Z,36.92
2018-05-18T13:39:10.426Z,38.35
2018-05-18T13:41:45.286Z,39.86
2018-05-18T13:44:17.776Z,36.25
2018-05-18T13:46:56.627Z,36.65
2018-05-18T13:49:28.814Z,33.27
2018-05-18T13:52:01.484Z,33.37
2018-05-18T13:54:32.117Z,36.82
2018-05-18T13:57:03.909Z,38.51
2018-05-18T13:59:42.815Z,34.49
2018-05-18T14:02:26.107Z,31.79
2018-05-18T14:04:57.822Z,33.56
2018-05-18T14:07:31.329Z,35.98
2018-05-18T14:10:03.105Z,38.11
2018-05-18T14:12:33.895Z,39.14
2018-05-18T14:15:06.827Z,40.37
2018-05-18T14:17:41.715Z,37.62
2018-05-18T14:20:23.266Z,40.79
2018-05-18T14:23:00.420Z,36.72
2018-05-18T14:25:31.109Z,37.30
2018-05-18T14:28:06.408Z,37.58
2018-05-18T14:30:55.045Z,32.83
2018-05-18T14:33:40.543Z,35.71
2018-05-18T14:36:15.469Z,38.07
2018-05-18T14:38:46.587Z,40.10
2018-05-18T14:41:22.653Z,36.02
2018-05-18T14:44:13.817Z,35.65
2018-05-18T14:46:43.391Z,38.40
2018-05-18T14:52:07.058Z,35.38
2018-05-18T14:54:36.548Z,37.89
2018-05-18T14:57:12.108Z,38.21
2018-05-18T14:59:54.546Z,35.63
2018-05-18T15:02:28.028Z,35.92
2018-05-18T15:05:11.368Z,38.00
2018-05-18T15:07:52.412Z,36.72
2018-05-18T15:10:22.631Z,36.26
2018-05-18T15:12:50.895Z,33.72
2018-05-18T15:15:24.347Z,33.34
2018-05-18T15:18:16.577Z,36.20
2018-05-18T15:23:48.439Z,31.23
2018-05-18T15:26:22.531Z,30.90
2018-05-18T15:28:58.669Z,28.61
2018-05-18T15:31:28.517Z,26.76
2018-05-18T15:34:14.637Z,27.61
2018-05-18T15:36:43.954Z,29.43
2018-05-18T15:39:27.950Z,31.46
2018-05-18T15:41:58.944Z,30.38
2018-05-18T15:44:29.857Z,31.55
2018-05-18T15:47:05.856Z,31.14
2018-05-18T15:52:51.667Z,26.54
2018-05-18T15:55:23.884Z,26.00
2018-05-18T15:57:56.673Z,25.16
2018-05-18T16:00:33.526Z,23.94
2018-05-18T16:03:02.100Z,23.62
2018-05-18T16:11:24.919Z,22.76
2018-05-18T16:13:53.491Z,22.58
2018-05-18T16:16:27.073Z,22.46
2018-05-18T16:18:55.417Z,22.84
2018-05-18T16:21:23.831Z,22.77
2018-05-18T16:23:54.218Z,22.13
2018-05-18T16:26:45.861Z,21.35
2018-05-18T16:29:16.538Z,21.66
2018-05-18T16:31:44.820Z,21.85
2018-05-18T16:34:13.207Z,21.72
2018-05-18T16:36:44.235Z,21.90
2018-05-18T16:39:13.584Z,22.56
2018-05-18T16:41:43.545Z,23.68
2018-05-18T16:44:12.707Z,26.01
2018-05-18T16:46:41.950Z,26.56
2018-05-18T16:49:14.960Z,28.53
2018-05-18T16:51:44.019Z,29.09
2018-05-18T16:54:17.267Z,29.56
2018-05-18T16:56:58.199Z,28.83
2018-05-18T16:59:34.248Z,28.46
2018-05-18T17:02:06.428Z,27.81
2018-05-18T17:04:34.696Z,28.63
2018-05-18T17:07:07.562Z,28.92
2018-05-18T17:09:42.395Z,27.98
2018-05-18T17:12:18.448Z,26.79
2018-05-18T17:14:52.768Z,26.00
2018-05-18T17:17:26.183Z,25.03
2018-05-18T17:20:08.508Z,23.82
2018-05-18T17:22:57.467Z,23.35
2018-05-18T17:25:33.134Z,22.86
2018-05-18T17:28:06.114Z,22.54
2018-05-18T17:30:35.483Z,22.73
2018-05-18T17:33:07.810Z,22.12
2018-05-18T17:38:18.635Z,21.50
2018-05-18T17:40:50.422Z,21.51
2018-05-18T17:43:19.718Z,21.19
2018-05-18T17:45:58.333Z,20.54
2018-05-18T17:48:30.520Z,19.78
2018-05-18T17:50:58.915Z,19.53
2018-05-18T17:53:32.998Z,19.16
2018-05-18T17:56:07.011Z,19.04
2018-05-18T17:58:36.187Z,18.93
2018-05-18T18:01:04.474Z,18.88
2018-05-18T18:03:34.800Z,18.83
2018-05-18T18:06:03.166Z,18.88
2018-05-18T18:08:31.548Z,18.46
2018-05-18T18:10:59.803Z,18.33
2018-05-18T18:13:29.960Z,18.32
2018-05-18T18:15:59.947Z,18.27
2018-05-18T18:18:29.312Z,18.08
2018-05-18T18:20:57.662Z,17.95
2018-05-18T18:23:26.836Z,17.82
2018-05-18T18:25:55.179Z,17.69
2018-05-18T18:28:25.632Z,17.52
2018-05-18T18:30:53.933Z,17.41
2018-05-18T18:33:24.585Z,17.28
2018-05-18T18:35:54.692Z,17.07
2018-05-18T18:38:22.941Z,16.94
2018-05-18T18:40:52.335Z,16.76
2018-05-18T18:43:25.576Z,16.56
2018-05-18T18:45:55.658Z,16.43
2018-05-18T18:48:23.945Z,16.35
2018-05-18T18:50:52.277Z,16.33
2018-05-18T18:53:21.531Z,16.26
2018-05-18T18:55:53.305Z,16.15
2018-05-18T18:58:22.478Z,16.15
2018-05-18T19:00:51.016Z,16.12
2018-05-18T19:03:23.977Z,16.03
2018-05-18T19:05:54.119Z,15.94
2018-05-18T19:23:52.386Z,15.41
2018-05-18T19:26:27.152Z,15.39
2018-05-18T19:28:59.722Z,15.38
2018-05-18T19:31:30.028Z,15.35
2018-05-18T19:33:58.456Z,15.35
2018-05-18T19:36:44.283Z,15.37
2018-05-18T19:39:38.660Z,15.37
2018-05-18T19:42:08.043Z,15.35
2018-05-18T19:44:45.728Z,15.37
2018-05-18T19:47:16.087Z,15.45
2018-05-18T19:49:44.452Z,15.51
2018-05-18T19:52:20.588Z,15.57
2018-05-18T19:54:55.680Z,15.49
2018-05-18T19:57:27.851Z,15.51
2018-05-18T20:00:01.444Z,15.49
2018-05-18T20:02:29.804Z,15.37
2018-05-18T20:05:03.007Z,15.25
2018-05-18T20:07:33.374Z,15.06
2018-05-18T20:10:02.699Z,15.01
2018-05-18T20:12:45.951Z,14.89
2018-05-18T20:15:20.088Z,14.85
2018-05-18T20:17:59.103Z,14.91
2018-05-18T20:20:32.275Z,14.97
2018-05-18T20:23:03.320Z,15.04
2018-05-18T20:25:33.415Z,15.12
2018-05-18T20:28:06.691Z,15.25
2018-05-18T20:30:36.083Z,15.18
2018-05-18T20:33:10.746Z,15.08
2018-05-18T20:35:47.477Z,15.00
2018-05-18T20:38:22.648Z,14.94
2018-05-18T20:40:52.256Z,14.90
2018-05-18T20:43:40.047Z,14.81
2018-05-18T20:46:11.809Z,14.68
2018-05-18T20:48:50.249Z,14.68
2018-05-18T20:51:19.552Z,14.75
2018-05-18T20:53:48.367Z,14.72
2018-05-18T20:56:18.510Z,14.68
2018-05-18T20:58:57.637Z,14.61
2018-05-18T21:01:27.770Z,14.56
2018-05-18T21:04:01.298Z,14.55
2018-05-18T21:06:30.574Z,14.63
2018-05-18T21:09:07.278Z,14.64
2018-05-18T21:11:36.840Z,14.69
2018-05-18T21:14:05.889Z,14.66
2018-05-18T21:16:34.235Z,14.72
2018-05-18T21:19:19.119Z,14.67
2018-05-18T21:21:53.251Z,14.64
2018-05-18T21:24:45.717Z,14.57
2018-05-18T21:27:16.202Z,14.59
2018-05-18T21:29:52.511Z,14.58
2018-05-18T21:32:33.830Z,14.64
2018-05-18T21:35:14.120Z,14.66
2018-05-18T21:37:56.936Z,14.77
2018-05-18T21:40:27.093Z,14.74
2018-05-18T21:42:57.303Z,14.71
2018-05-18T21:45:29.383Z,14.61
2018-05-18T21:48:08.542Z,14.57
2018-05-18T21:50:37.917Z,14.49
2018-05-18T21:53:13.310Z,14.41
2018-05-18T21:55:45.431Z,14.31
2018-05-18T21:58:28.722Z,14.23
2018-05-18T22:01:05.490Z,14.19
2018-05-18T22:03:38.665Z,14.17
2018-05-18T22:06:08.747Z,14.16
2018-05-18T22:08:40.185Z,14.12
2018-05-18T22:11:11.498Z,14.13
2018-05-18T22:13:46.351Z,14.16
2018-05-18T22:16:19.664Z,14.17
2018-05-18T22:18:49.929Z,14.10
2018-05-18T22:21:23.939Z,13.95
2018-05-18T22:23:57.040Z,13.76
2018-05-18T22:26:27.372Z,13.70
2018-05-18T22:28:59.571Z,13.61
2018-05-18T22:31:35.132Z,13.53
2018-05-18T22:34:10.914Z,13.48
2018-05-18T22:36:42.802Z,13.41
2018-05-18T22:39:22.594Z,13.32
2018-05-18T22:42:02.572Z,13.28
2018-05-18T22:44:34.834Z,13.22
2018-05-18T22:47:06.377Z,13.15
2018-05-18T22:49:39.950Z,13.11
2018-05-18T22:52:17.961Z,13.04
2018-05-18T22:55:00.755Z,13.04
2018-05-18T22:57:29.093Z,12.97
2018-05-18T22:59:57.435Z,12.89
2018-05-18T23:02:27.153Z,12.82
2018-05-18T23:05:07.399Z,12.72
2018-05-18T23:07:41.566Z,12.76
2018-05-18T23:10:10.899Z,12.71
2018-05-18T23:12:43.571Z,12.68
2018-05-18T23:15:18.039Z,12.66
2018-05-18T23:17:56.555Z,12.64
2018-05-18T23:20:30.678Z,12.64
2018-05-18T23:23:00.000Z,12.66
2018-05-18T23:25:28.287Z,12.67
2018-05-18T23:27:56.608Z,12.68
2018-05-18T23:30:27.616Z,12.70
2018-05-18T23:32:59.303Z,12.71
2018-05-18T23:35:28.372Z,12.75
2018-05-18T23:37:57.779Z,12.78
2018-05-18T23:40:27.148Z,12.79
2018-05-18T23:42:56.269Z,12.77
2018-05-18T23:45:24.544Z,12.75
2018-05-18T23:47:52.861Z,12.72
2018-05-18T23:50:21.923Z,12.73
2018-05-18T23:52:53.883Z,12.73
2018-05-18T23:55:27.344Z,12.78
2018-05-18T23:57:59.456Z,12.77
